sensor_id;sensor_type;location;lat;lon;timestamp;pressure;altitude;pressure_sealevel;temperature;humidity
46392;BME280;32098;49.448;7.904;2024-01-16T00:01:35;97587.22;;;-1.03;75.51
46392;BME280;32098;49.448;7.904;2024-01-16T00:04:02;97591.47;;;-1.02;74.98
46392;BME280;32098;49.448;7.904;2024-01-16T00:06:29;97593.44;;;-0.96;74.93
46392;BME280;32098;49.448;7.904;2024-01-16T00:08:55;97600.44;;;-1.05;75.14
46392;BME280;32098;49.448;7.904;2024-01-16T00:11:22;97589.47;;;-1.16;74.74
46392;BME280;32098;49.448;7.904;2024-01-16T00:13:48;97596.28;;;-1.31;74.87
46392;BME280;32098;49.448;7.904;2024-01-16T00:16:15;97606.19;;;-1.35;75.14
46392;BME280;32098;49.448;7.904;2024-01-16T00:18:42;97599.53;;;-1.29;75.07
46392;BME280;32098;49.448;7.904;2024-01-16T00:21:09;97607.06;;;-1.26;75.58
46392;BME280;32098;49.448;7.904;2024-01-16T00:23:36;97609.50;;;-1.25;75.42
46392;BME280;32098;49.448;7.904;2024-01-16T00:26:02;97606.91;;;-1.25;75.39
46392;BME280;32098;49.448;7.904;2024-01-16T00:28:31;97597.75;;;-1.29;76.02
46392;BME280;32098;49.448;7.904;2024-01-16T00:30:58;97600.53;;;-1.22;75.46
46392;BME280;32098;49.448;7.904;2024-01-16T00:33:24;97612.00;;;-1.15;75.53
46392;BME280;32098;49.448;7.904;2024-01-16T00:35:53;97607.28;;;-1.12;76.07
46392;BME280;32098;49.448;7.904;2024-01-16T00:38:20;97603.03;;;-1.13;76.49
46392;BME280;32098;49.448;7.904;2024-01-16T00:40:48;97600.91;;;-1.09;76.07
46392;BME280;32098;49.448;7.904;2024-01-16T00:43:15;97596.50;;;-1.09;76.18
46392;BME280;32098;49.448;7.904;2024-01-16T00:45:41;97594.06;;;-1.10;75.80
46392;BME280;32098;49.448;7.904;2024-01-16T00:48:08;97584.41;;;-1.10;75.75
46392;BME280;32098;49.448;7.904;2024-01-16T00:50:37;97594.06;;;-1.10;75.98
46392;BME280;32098;49.448;7.904;2024-01-16T00:53:04;97597.34;;;-1.08;75.83
46392;BME280;32098;49.448;7.904;2024-01-16T00:55:31;97601.22;;;-1.12;75.90
46392;BME280;32098;49.448;7.904;2024-01-16T00:57:57;97607.91;;;-1.10;76.37
46392;BME280;32098;49.448;7.904;2024-01-16T01:00:24;97610.53;;;-1.10;75.45
46392;BME280;32098;49.448;7.904;2024-01-16T01:02:51;97620.66;;;-1.07;75.69
46392;BME280;32098;49.448;7.904;2024-01-16T01:05:17;97608.59;;;-1.08;75.67
46392;BME280;32098;49.448;7.904;2024-01-16T01:07:44;97614.97;;;-1.10;75.89
46392;BME280;32098;49.448;7.904;2024-01-16T01:10:11;97617.72;;;-1.12;76.08
46392;BME280;32098;49.448;7.904;2024-01-16T01:12:38;97627.34;;;-1.12;76.32
46392;BME280;32098;49.448;7.904;2024-01-16T01:15:05;97633.25;;;-1.10;75.97
46392;BME280;32098;49.448;7.904;2024-01-16T01:17:31;97630.63;;;-1.10;76.50
46392;BME280;32098;49.448;7.904;2024-01-16T01:19:58;97632.91;;;-1.07;77.10
46392;BME280;32098;49.448;7.904;2024-01-16T01:22:25;97630.63;;;-1.10;77.03
46392;BME280;32098;49.448;7.904;2024-01-16T01:24:51;97640.44;;;-1.04;77.47
46392;BME280;32098;49.448;7.904;2024-01-16T01:27:18;97635.19;;;-1.04;77.27
46392;BME280;32098;49.448;7.904;2024-01-16T01:29:45;97635.53;;;-0.99;77.10
46392;BME280;32098;49.448;7.904;2024-01-16T01:32:11;97634.25;;;-0.95;77.54
46392;BME280;32098;49.448;7.904;2024-01-16T01:34:38;97631.63;;;-0.95;77.24
46392;BME280;32098;49.448;7.904;2024-01-16T01:37:08;97637.19;;;-0.90;77.05
46392;BME280;32098;49.448;7.904;2024-01-16T01:39:34;97632.31;;;-0.85;76.58
46392;BME280;32098;49.448;7.904;2024-01-16T01:42:01;97620.88;;;-0.92;76.69
46392;BME280;32098;49.448;7.904;2024-01-16T01:44:28;97639.19;;;-0.84;76.35
46392;BME280;32098;49.448;7.904;2024-01-16T01:46:55;97640.16;;;-0.85;75.87
46392;BME280;32098;49.448;7.904;2024-01-16T01:49:23;97638.53;;;-0.86;76.82
46392;BME280;32098;49.448;7.904;2024-01-16T01:51:50;97625.09;;;-0.99;76.60
46392;BME280;32098;49.448;7.904;2024-01-16T01:54:18;97641.44;;;-0.89;76.19
46392;BME280;32098;49.448;7.904;2024-01-16T01:56:47;97645.84;;;-0.89;76.71
46392;BME280;32098;49.448;7.904;2024-01-16T01:59:14;97639.97;;;-0.91;76.86
46392;BME280;32098;49.448;7.904;2024-01-16T02:01:45;97646.38;;;-0.86;76.81
46392;BME280;32098;49.448;7.904;2024-01-16T02:04:14;97634.09;;;-0.93;76.32
46392;BME280;32098;49.448;7.904;2024-01-16T02:06:42;97650.25;;;-0.90;75.87
46392;BME280;32098;49.448;7.904;2024-01-16T02:09:11;97645.53;;;-0.86;76.13
46392;BME280;32098;49.448;7.904;2024-01-16T02:11:40;97647.97;;;-0.85;76.10
46392;BME280;32098;49.448;7.904;2024-01-16T02:14:08;97645.38;;;-0.93;76.64
46392;BME280;32098;49.448;7.904;2024-01-16T02:16:39;97651.25;;;-0.91;76.13
46392;BME280;32098;49.448;7.904;2024-01-16T02:19:07;97647.47;;;-0.96;75.76
46392;BME280;32098;49.448;7.904;2024-01-16T02:21:47;97646.66;;;-0.97;75.86
46392;BME280;32098;49.448;7.904;2024-01-16T02:24:18;97661.00;;;-1.01;76.04
46392;BME280;32098;49.448;7.904;2024-01-16T02:26:45;97664.75;;;-1.04;76.48
46392;BME280;32098;49.448;7.904;2024-01-16T02:29:12;97653.78;;;-1.07;76.52
46392;BME280;32098;49.448;7.904;2024-01-16T02:31:39;97645.47;;;-1.11;76.01
46392;BME280;32098;49.448;7.904;2024-01-16T02:34:06;97652.31;;;-1.10;76.54
46392;BME280;32098;49.448;7.904;2024-01-16T02:36:33;97652.41;;;-1.27;75.67
46392;BME280;32098;49.448;7.904;2024-01-16T02:39:00;97652.06;;;-1.32;76.35
46392;BME280;32098;49.448;7.904;2024-01-16T02:41:27;97658.28;;;-1.33;76.35
46392;BME280;32098;49.448;7.904;2024-01-16T02:43:53;97652.75;;;-1.22;77.01
46392;BME280;32098;49.448;7.904;2024-01-16T02:46:20;97650.13;;;-1.30;76.84
46392;BME280;32098;49.448;7.904;2024-01-16T02:48:46;97652.41;;;-1.35;77.00
46392;BME280;32098;49.448;7.904;2024-01-16T02:51:13;97648.19;;;-1.28;76.75
46392;BME280;32098;49.448;7.904;2024-01-16T02:53:40;97661.28;;;-1.20;77.02
46392;BME280;32098;49.448;7.904;2024-01-16T02:56:08;97655.09;;;-1.11;76.41
46392;BME280;32098;49.448;7.904;2024-01-16T02:58:35;97664.22;;;-1.15;76.69
46392;BME280;32098;49.448;7.904;2024-01-16T03:01:01;97649.84;;;-1.19;76.84
46392;BME280;32098;49.448;7.904;2024-01-16T03:03:28;97647.03;;;-1.26;76.72
46392;BME280;32098;49.448;7.904;2024-01-16T03:05:55;97654.22;;;-1.28;76.10
46392;BME280;32098;49.448;7.904;2024-01-16T03:08:23;97658.16;;;-1.24;76.30
46392;BME280;32098;49.448;7.904;2024-01-16T03:10:49;97663.19;;;-1.22;76.18
46392;BME280;32098;49.448;7.904;2024-01-16T03:13:16;97668.25;;;-1.29;75.92
46392;BME280;32098;49.448;7.904;2024-01-16T03:15:42;97674.28;;;-1.28;77.08
46392;BME280;32098;49.448;7.904;2024-01-16T03:18:09;97661.84;;;-1.34;76.68
46392;BME280;32098;49.448;7.904;2024-01-16T03:20:36;97671.31;;;-1.33;76.98
46392;BME280;32098;49.448;7.904;2024-01-16T03:23:03;97662.50;;;-1.32;76.72
46392;BME280;32098;49.448;7.904;2024-01-16T03:25:30;97662.50;;;-1.32;77.58
46392;BME280;32098;49.448;7.904;2024-01-16T03:27:57;97663.53;;;-1.25;77.69
46392;BME280;32098;49.448;7.904;2024-01-16T03:30:24;97660.59;;;-1.22;77.62
46392;BME280;32098;49.448;7.904;2024-01-16T03:32:51;97657.97;;;-1.22;77.58
46392;BME280;32098;49.448;7.904;2024-01-16T03:35:18;97660.94;;;-1.17;77.72
46392;BME280;32098;49.448;7.904;2024-01-16T03:37:44;97662.88;;;-1.19;77.54
46392;BME280;32098;49.448;7.904;2024-01-16T03:40:11;97662.88;;;-1.19;77.54
46392;BME280;32098;49.448;7.904;2024-01-16T03:42:39;97666.50;;;-1.20;77.53
46392;BME280;32098;49.448;7.904;2024-01-16T03:45:06;97664.53;;;-1.18;78.01
46392;BME280;32098;49.448;7.904;2024-01-16T03:47:33;97670.59;;;-1.18;77.40
46392;BME280;32098;49.448;7.904;2024-01-16T03:49:59;97673.50;;;-1.21;77.43
46392;BME280;32098;49.448;7.904;2024-01-16T03:52:26;97668.75;;;-1.25;77.71
46392;BME280;32098;49.448;7.904;2024-01-16T03:54:53;97674.31;;;-1.20;77.19
46392;BME280;32098;49.448;7.904;2024-01-16T03:57:19;97669.72;;;-1.26;77.02
46392;BME280;32098;49.448;7.904;2024-01-16T03:59:46;97663.19;;;-1.30;77.30
46392;BME280;32098;49.448;7.904;2024-01-16T04:02:13;97664.63;;;-1.36;77.96
46392;BME280;32098;49.448;7.904;2024-01-16T04:04:39;97677.03;;;-1.30;77.85
46392;BME280;32098;49.448;7.904;2024-01-16T04:07:06;97676.41;;;-1.24;77.60
46392;BME280;32098;49.448;7.904;2024-01-16T04:09:32;97671.50;;;-1.27;78.09
46392;BME280;32098;49.448;7.904;2024-01-16T04:11:59;97673.03;;;-1.16;77.58
46392;BME280;32098;49.448;7.904;2024-01-16T04:14:26;97670.72;;;-1.19;77.84
46392;BME280;32098;49.448;7.904;2024-01-16T04:16:52;97675.59;;;-1.24;77.76
46392;BME280;32098;49.448;7.904;2024-01-16T04:19:19;97666.50;;;-1.20;77.17
46392;BME280;32098;49.448;7.904;2024-01-16T04:21:46;97660.56;;;-1.30;77.49
46392;BME280;32098;49.448;7.904;2024-01-16T04:24:12;97654.66;;;-1.32;77.10
46392;BME280;32098;49.448;7.904;2024-01-16T04:26:39;97656.31;;;-1.31;77.71
46392;BME280;32098;49.448;7.904;2024-01-16T04:29:06;97651.91;;;-1.31;77.41
46392;BME280;32098;49.448;7.904;2024-01-16T04:31:39;97653.72;;;-1.31;77.65
46392;BME280;32098;49.448;7.904;2024-01-16T04:34:07;97652.84;;;-1.40;77.20
46392;BME280;32098;49.448;7.904;2024-01-16T04:36:33;97642.47;;;-1.57;76.33
46392;BME280;32098;49.448;7.904;2024-01-16T04:39:00;97647.31;;;-1.71;76.74
46392;BME280;32098;49.448;7.904;2024-01-16T04:41:27;97644.66;;;-1.79;76.79
46392;BME280;32098;49.448;7.904;2024-01-16T04:43:53;97647.25;;;-1.79;76.19
46392;BME280;32098;49.448;7.904;2024-01-16T04:46:20;97635.47;;;-1.83;76.52
46392;BME280;32098;49.448;7.904;2024-01-16T04:48:46;97637.06;;;-1.90;76.47
46392;BME280;32098;49.448;7.904;2024-01-16T04:51:13;97631.19;;;-1.92;76.73
46392;BME280;32098;49.448;7.904;2024-01-16T04:53:40;97622.91;;;-1.87;76.54
46392;BME280;32098;49.448;7.904;2024-01-16T04:56:07;97628.09;;;-1.95;76.33
46392;BME280;32098;49.448;7.904;2024-01-16T04:58:34;97619.09;;;-2.01;77.14
46392;BME280;32098;49.448;7.904;2024-01-16T05:01:00;97622.34;;;-1.99;78.39
46392;BME280;32098;49.448;7.904;2024-01-16T05:03:27;97620.03;;;-2.02;78.37
46392;BME280;32098;49.448;7.904;2024-01-16T05:05:53;97614.22;;;-1.96;77.45
46392;BME280;32098;49.448;7.904;2024-01-16T05:08:20;97610.28;;;-2.00;78.59
46392;BME280;32098;49.448;7.904;2024-01-16T05:10:47;97616.34;;;-2.17;78.08
46392;BME280;32098;49.448;7.904;2024-01-16T05:13:14;97605.16;;;-2.09;78.29
46392;BME280;32098;49.448;7.904;2024-01-16T05:15:40;97603.44;;;-2.01;78.64
46392;BME280;32098;49.448;7.904;2024-01-16T05:18:08;97597.91;;;-1.98;79.17
46392;BME280;32098;49.448;7.904;2024-01-16T05:20:36;97594.84;;;-2.19;78.19
46392;BME280;32098;49.448;7.904;2024-01-16T05:23:03;97585.34;;;-2.28;78.31
46392;BME280;32098;49.448;7.904;2024-01-16T05:25:30;97591.56;;;-2.21;78.47
46392;BME280;32098;49.448;7.904;2024-01-16T05:27:56;97584.22;;;-2.25;77.51
46392;BME280;32098;49.448;7.904;2024-01-16T05:30:23;97581.44;;;-2.24;78.00
46392;BME280;32098;49.448;7.904;2024-01-16T05:32:50;97586.34;;;-2.21;78.06
46392;BME280;32098;49.448;7.904;2024-01-16T05:35:18;97583.28;;;-2.16;77.85
46392;BME280;32098;49.448;7.904;2024-01-16T05:37:46;97583.94;;;-2.14;77.27
46392;BME280;32098;49.448;7.904;2024-01-16T05:40:13;97572.72;;;-0.81;97.10
46392;BME280;32098;49.448;7.904;2024-01-16T05:42:39;97577.88;;;0.32;99.09
46392;BME280;32098;49.448;7.904;2024-01-16T05:45:07;97577.31;;;0.83;91.76
46392;BME280;32098;49.448;7.904;2024-01-16T05:47:34;97569.34;;;1.30;81.57
46392;BME280;32098;49.448;7.904;2024-01-16T05:50:00;97565.94;;;1.67;76.65
46392;BME280;32098;49.448;7.904;2024-01-16T05:52:27;97563.81;;;1.85;73.01
46392;BME280;32098;49.448;7.904;2024-01-16T05:54:53;97554.56;;;1.37;62.74
46392;BME280;32098;49.448;7.904;2024-01-16T05:57:23;97559.13;;;0.12;63.91
46392;BME280;32098;49.448;7.904;2024-01-16T05:59:50;97555.91;;;-0.87;66.39
46392;BME280;32098;49.448;7.904;2024-01-16T06:02:17;97565.19;;;-1.58;70.10
46392;BME280;32098;49.448;7.904;2024-01-16T06:04:44;97568.88;;;-2.03;72.52
46392;BME280;32098;49.448;7.904;2024-01-16T06:07:10;97567.13;;;-2.20;74.05
46392;BME280;32098;49.448;7.904;2024-01-16T06:09:39;97564.25;;;-2.35;75.38
46392;BME280;32098;49.448;7.904;2024-01-16T06:12:08;97564.78;;;-2.31;75.42
46392;BME280;32098;49.448;7.904;2024-01-16T06:14:36;97566.41;;;-2.30;75.41
46392;BME280;32098;49.448;7.904;2024-01-16T06:17:04;97556.69;;;-2.20;76.40
46392;BME280;32098;49.448;7.904;2024-01-16T06:19:32;97556.41;;;-2.17;76.66
46392;BME280;32098;49.448;7.904;2024-01-16T06:21:59;97564.25;;;-2.35;76.17
46392;BME280;32098;49.448;7.904;2024-01-16T06:24:26;97557.22;;;-2.60;76.11
46392;BME280;32098;49.448;7.904;2024-01-16T06:26:53;97554.72;;;-2.69;76.01
46392;BME280;32098;49.448;7.904;2024-01-16T06:29:19;97543.84;;;-2.65;77.54
46392;BME280;32098;49.448;7.904;2024-01-16T06:31:59;97549.66;;;-2.53;78.33
46392;BME280;32098;49.448;7.904;2024-01-16T06:34:27;97559.44;;;-2.47;78.80
46392;BME280;32098;49.448;7.904;2024-01-16T06:36:54;97552.81;;;-2.42;78.29
46392;BME280;32098;49.448;7.904;2024-01-16T06:39:20;97554.59;;;-2.42;78.11
46392;BME280;32098;49.448;7.904;2024-01-16T06:41:48;97558.22;;;-2.35;78.25
46392;BME280;32098;49.448;7.904;2024-01-16T06:44:14;97559.56;;;-2.31;78.32
46392;BME280;32098;49.448;7.904;2024-01-16T06:46:41;97555.47;;;-2.34;78.51
46392;BME280;32098;49.448;7.904;2024-01-16T06:49:08;97561.81;;;-2.36;78.61
46392;BME280;32098;49.448;7.904;2024-01-16T06:51:34;97559.66;;;-2.41;78.17
46392;BME280;32098;49.448;7.904;2024-01-16T06:54:01;97563.75;;;-2.38;78.40
46392;BME280;32098;49.448;7.904;2024-01-16T06:56:29;97555.34;;;-2.50;78.34
46392;BME280;32098;49.448;7.904;2024-01-16T06:58:56;97555.06;;;-2.47;78.10
46392;BME280;32098;49.448;7.904;2024-01-16T07:01:22;97556.94;;;-2.57;78.88
46392;BME280;32098;49.448;7.904;2024-01-16T07:03:49;97560.72;;;-2.51;78.70
46392;BME280;32098;49.448;7.904;2024-01-16T07:06:16;97562.16;;;-2.74;79.06
46392;BME280;32098;49.448;7.904;2024-01-16T07:08:42;97569.69;;;-2.71;80.17
46392;BME280;32098;49.448;7.904;2024-01-16T07:11:09;97559.75;;;-2.68;80.21
46392;BME280;32098;49.448;7.904;2024-01-16T07:13:40;97570.34;;;-2.69;80.87
46392;BME280;32098;49.448;7.904;2024-01-16T07:16:10;97567.06;;;-2.71;80.61
46392;BME280;32098;49.448;7.904;2024-01-16T07:18:38;97560.22;;;-2.72;80.72
46392;BME280;32098;49.448;7.904;2024-01-16T07:21:19;97566.78;;;-2.68;80.02
46392;BME280;32098;49.448;7.904;2024-01-16T07:23:47;97558.81;;;-2.67;80.31
46392;BME280;32098;49.448;7.904;2024-01-16T07:26:14;97561.88;;;-2.71;79.53
46392;BME280;32098;49.448;7.904;2024-01-16T07:28:41;97568.03;;;-2.72;79.53
46392;BME280;32098;49.448;7.904;2024-01-16T07:31:08;97566.78;;;-2.68;79.70
46392;BME280;32098;49.448;7.904;2024-01-16T07:33:36;97558.66;;;-2.65;78.96
46392;BME280;32098;49.448;7.904;2024-01-16T07:36:03;97565.22;;;-2.61;79.23
46392;BME280;32098;49.448;7.904;2024-01-16T07:38:30;97558.66;;;-2.65;79.22
46392;BME280;32098;49.448;7.904;2024-01-16T07:40:56;97561.94;;;-2.63;79.31
46392;BME280;32098;49.448;7.904;2024-01-16T07:43:23;97573.25;;;-2.72;79.17
46392;BME280;32098;49.448;7.904;2024-01-16T07:45:50;97576.00;;;-2.91;78.61
46392;BME280;32098;49.448;7.904;2024-01-16T07:48:16;97572.44;;;-2.90;79.62
46392;BME280;32098;49.448;7.904;2024-01-16T07:50:43;97573.78;;;-2.86;79.70
46392;BME280;32098;49.448;7.904;2024-01-16T07:53:12;97568.28;;;-2.83;79.15
46392;BME280;32098;49.448;7.904;2024-01-16T07:55:38;97574.53;;;-2.76;79.39
46392;BME280;32098;49.448;7.904;2024-01-16T07:58:05;97580.91;;;-2.88;78.79
46392;BME280;32098;49.448;7.904;2024-01-16T08:00:32;97581.66;;;-2.78;79.37
46392;BME280;32098;49.448;7.904;2024-01-16T08:02:59;97573.25;;;-2.72;79.07
46392;BME280;32098;49.448;7.904;2024-01-16T08:05:26;97577.88;;;-2.66;78.81
46392;BME280;32098;49.448;7.904;2024-01-16T08:07:54;97590.88;;;-2.66;78.86
46392;BME280;32098;49.448;7.904;2024-01-16T08:10:21;97592.88;;;-2.60;78.03
46392;BME280;32098;49.448;7.904;2024-01-16T08:12:48;97597.72;;;-2.65;78.19
46392;BME280;32098;49.448;7.904;2024-01-16T08:15:15;97599.06;;;-2.61;77.86
46392;BME280;32098;49.448;7.904;2024-01-16T08:17:41;97599.16;;;-2.71;78.33
46392;BME280;32098;49.448;7.904;2024-01-16T08:20:09;97599.00;;;-2.69;78.30
46392;BME280;32098;49.448;7.904;2024-01-16T08:22:37;97591.09;;;-2.60;79.33
46392;BME280;32098;49.448;7.904;2024-01-16T08:25:04;97592.97;;;-2.70;78.53
46392;BME280;32098;49.448;7.904;2024-01-16T08:27:31;97607.75;;;-2.70;78.46
46392;BME280;32098;49.448;7.904;2024-01-16T08:29:58;97609.66;;;-2.80;79.14
46392;BME280;32098;49.448;7.904;2024-01-16T08:32:25;97600.63;;;-2.68;79.47
46392;BME280;32098;49.448;7.904;2024-01-16T08:34:51;97606.31;;;-2.73;79.28
46392;BME280;32098;49.448;7.904;2024-01-16T08:37:18;97602.72;;;-2.72;80.31
46392;BME280;32098;49.448;7.904;2024-01-16T08:39:45;97610.06;;;-2.67;79.47
46392;BME280;32098;49.448;7.904;2024-01-16T08:42:11;97601.28;;;-2.49;79.79
46392;BME280;32098;49.448;7.904;2024-01-16T08:44:38;97611.03;;;-2.33;80.31
46392;BME280;32098;49.448;7.904;2024-01-16T08:47:05;97609.00;;;-2.21;79.51
46392;BME280;32098;49.448;7.904;2024-01-16T08:49:33;97612.84;;;-2.08;79.47
46392;BME280;32098;49.448;7.904;2024-01-16T08:52:01;97619.78;;;-1.91;79.29
46392;BME280;32098;49.448;7.904;2024-01-16T08:54:29;97617.75;;;-1.79;78.85
46392;BME280;32098;49.448;7.904;2024-01-16T08:56:55;97627.75;;;-1.67;79.17
46392;BME280;32098;49.448;7.904;2024-01-16T08:59:23;97628.28;;;-1.55;78.35
46392;BME280;32098;49.448;7.904;2024-01-16T09:01:50;97631.78;;;-1.46;77.75
46392;BME280;32098;49.448;7.904;2024-01-16T09:04:18;97625.47;;;-1.36;77.17
46392;BME280;32098;49.448;7.904;2024-01-16T09:06:45;97638.38;;;-1.26;77.44
46392;BME280;32098;49.448;7.904;2024-01-16T09:09:12;97632.84;;;-1.23;76.69
46392;BME280;32098;49.448;7.904;2024-01-16T09:11:39;97626.66;;;-1.22;76.06
46392;BME280;32098;49.448;7.904;2024-01-16T09:14:05;97642.16;;;-1.21;77.02
46392;BME280;32098;49.448;7.904;2024-01-16T09:16:32;97636.13;;;-1.21;77.02
46392;BME280;32098;49.448;7.904;2024-01-16T09:18:58;97640.72;;;-1.07;77.44
46392;BME280;32098;49.448;7.904;2024-01-16T09:21:26;97649.75;;;-1.02;77.43
46392;BME280;32098;49.448;7.904;2024-01-16T09:23:52;97632.09;;;-1.00;76.66
46392;BME280;32098;49.448;7.904;2024-01-16T09:26:20;97638.34;;;-0.84;76.18
46392;BME280;32098;49.448;7.904;2024-01-16T09:28:47;97626.78;;;-0.74;75.97
46392;BME280;32098;49.448;7.904;2024-01-16T09:31:15;97625.16;;;-0.67;75.88
46392;BME280;32098;49.448;7.904;2024-01-16T09:33:43;97632.38;;;-0.61;75.96
46392;BME280;32098;49.448;7.904;2024-01-16T09:36:10;97628.44;;;-0.57;75.17
46392;BME280;32098;49.448;7.904;2024-01-16T09:38:37;97614.09;;;-0.53;74.32
46392;BME280;32098;49.448;7.904;2024-01-16T09:41:04;97620.31;;;-0.46;74.66
46392;BME280;32098;49.448;7.904;2024-01-16T09:43:32;97602.66;;;-0.44;73.82
46392;BME280;32098;49.448;7.904;2024-01-16T09:46:04;97604.78;;;-0.39;73.87
46392;BME280;32098;49.448;7.904;2024-01-16T09:48:31;97597.56;;;-0.37;72.86
46392;BME280;32098;49.448;7.904;2024-01-16T09:50:58;97604.94;;;-0.32;73.45
46392;BME280;32098;49.448;7.904;2024-01-16T09:53:25;97609.84;;;-0.29;73.81
46392;BME280;32098;49.448;7.904;2024-01-16T09:55:54;97605.44;;;-0.29;73.57
46392;BME280;32098;49.448;7.904;2024-01-16T09:58:24;97610.19;;;-0.32;72.84
46392;BME280;32098;49.448;7.904;2024-01-16T10:00:52;97602.81;;;-0.29;72.60
46392;BME280;32098;49.448;7.904;2024-01-16T10:03:19;97591.19;;;-0.35;73.17
46392;BME280;32098;49.448;7.904;2024-01-16T10:05:47;97604.59;;;-0.21;73.46
46392;BME280;32098;49.448;7.904;2024-01-16T10:08:15;97602.31;;;-0.16;72.39
46392;BME280;32098;49.448;7.904;2024-01-16T10:10:42;97601.31;;;-0.07;72.97
46392;BME280;32098;49.448;7.904;2024-01-16T10:13:16;97598.88;;;-0.01;72.28
46392;BME280;32098;49.448;7.904;2024-01-16T10:15:43;97601.94;;;0.03;72.19
46392;BME280;32098;49.448;7.904;2024-01-16T10:18:26;97603.41;;;0.05;71.89
46392;BME280;32098;49.448;7.904;2024-01-16T10:20:53;97600.78;;;0.13;71.52
46392;BME280;32098;49.448;7.904;2024-01-16T10:23:28;97598.34;;;0.12;70.89
46392;BME280;32098;49.448;7.904;2024-01-16T10:26:09;97593.44;;;0.17;70.95
46392;BME280;32098;49.448;7.904;2024-01-16T10:28:37;97584.94;;;0.15;70.80
46392;BME280;32098;49.448;7.904;2024-01-16T10:31:05;97586.06;;;0.20;70.64
46392;BME280;32098;49.448;7.904;2024-01-16T10:33:32;97582.47;;;0.21;70.25
46392;BME280;32098;49.448;7.904;2024-01-16T10:36:14;97582.13;;;0.33;70.47
46392;BME280;32098;49.448;7.904;2024-01-16T10:38:44;97577.19;;;0.38;69.82
46392;BME280;32098;49.448;7.904;2024-01-16T10:41:18;97576.19;;;0.47;69.87
46392;BME280;32098;49.448;7.904;2024-01-16T10:43:45;97568.63;;;0.52;69.66
46392;BME280;32098;49.448;7.904;2024-01-16T10:46:16;97575.50;;;0.53;69.31
46392;BME280;32098;49.448;7.904;2024-01-16T10:48:45;97567.78;;;0.59;69.25
46392;BME280;32098;49.448;7.904;2024-01-16T10:51:26;97566.63;;;0.62;69.20
46392;BME280;32098;49.448;7.904;2024-01-16T10:54:01;97569.38;;;0.68;68.69
46392;BME280;32098;49.448;7.904;2024-01-16T10:56:30;97559.19;;;0.73;68.20
46392;BME280;32098;49.448;7.904;2024-01-16T10:59:12;97557.91;;;0.69;68.19
46392;BME280;32098;49.448;7.904;2024-01-16T11:01:45;97555.06;;;0.79;68.80
46392;BME280;32098;49.448;7.904;2024-01-16T11:04:16;97546.06;;;0.81;67.79
46392;BME280;32098;49.448;7.904;2024-01-16T11:06:43;97548.97;;;0.86;67.50
46392;BME280;32098;49.448;7.904;2024-01-16T11:09:12;97549.28;;;0.91;67.99
46392;BME280;32098;49.448;7.904;2024-01-16T11:11:46;97546.38;;;0.86;68.13
46392;BME280;32098;49.448;7.904;2024-01-16T11:14:13;97543.06;;;0.92;67.64
46392;BME280;32098;49.448;7.904;2024-01-16T11:16:41;97535.94;;;1.01;67.58
46392;BME280;32098;49.448;7.904;2024-01-16T11:19:09;97536.72;;;1.10;67.66
46392;BME280;32098;49.448;7.904;2024-01-16T11:21:56;97544.88;;;1.15;67.91
46392;BME280;32098;49.448;7.904;2024-01-16T11:24:23;97531.44;;;1.18;66.82
46392;BME280;32098;49.448;7.904;2024-01-16T11:26:50;97528.03;;;1.09;65.80
46392;BME280;32098;49.448;7.904;2024-01-16T11:31:57;97519.38;;;1.09;64.94
46392;BME280;32098;49.448;7.904;2024-01-16T11:37:11;97503.69;;;1.01;66.15
46392;BME280;32098;49.448;7.904;2024-01-16T11:39:39;97502.41;;;0.97;65.59
46392;BME280;32098;49.448;7.904;2024-01-16T11:42:07;97496.84;;;1.00;64.33
46392;BME280;32098;49.448;7.904;2024-01-16T11:44:39;97495.13;;;1.29;65.67
46392;BME280;32098;49.448;7.904;2024-01-16T11:47:06;97502.16;;;1.51;65.51
46392;BME280;32098;49.448;7.904;2024-01-16T11:49:36;97488.78;;;1.61;64.03
46392;BME280;32098;49.448;7.904;2024-01-16T11:52:04;97500.38;;;1.81;64.39
46392;BME280;32098;49.448;7.904;2024-01-16T11:54:32;97505.47;;;1.97;64.06
46392;BME280;32098;49.448;7.904;2024-01-16T11:59:55;97495.88;;;2.04;61.87
46392;BME280;32098;49.448;7.904;2024-01-16T12:02:29;97486.13;;;2.13;61.64
46392;BME280;32098;49.448;7.904;2024-01-16T12:05:00;97484.94;;;2.15;61.98
46392;BME280;32098;49.448;7.904;2024-01-16T12:07:42;97487.72;;;2.29;61.29
46392;BME280;32098;49.448;7.904;2024-01-16T12:10:11;97480.09;;;2.34;60.97
46392;BME280;32098;49.448;7.904;2024-01-16T12:12:38;97459.63;;;2.44;61.04
46392;BME280;32098;49.448;7.904;2024-01-16T12:15:05;97466.94;;;2.48;60.49
46392;BME280;32098;49.448;7.904;2024-01-16T12:17:33;97460.09;;;2.47;60.31
46392;BME280;32098;49.448;7.904;2024-01-16T12:20:00;97456.00;;;2.45;60.21
46392;BME280;32098;49.448;7.904;2024-01-16T12:22:26;97461.63;;;2.42;59.39
46392;BME280;32098;49.448;7.904;2024-01-16T12:24:55;97455.00;;;2.46;59.53
46392;BME280;32098;49.448;7.904;2024-01-16T12:27:23;97455.66;;;2.48;59.12
46392;BME280;32098;49.448;7.904;2024-01-16T12:30:05;97448.34;;;2.43;58.73
46392;BME280;32098;49.448;7.904;2024-01-16T12:32:32;97429.78;;;2.30;58.02
46392;BME280;32098;49.448;7.904;2024-01-16T12:34:59;97449.06;;;2.37;57.70
46392;BME280;32098;49.448;7.904;2024-01-16T12:37:25;97442.63;;;2.40;57.74
46392;BME280;32098;49.448;7.904;2024-01-16T12:39:52;97444.88;;;2.43;57.80
46392;BME280;32098;49.448;7.904;2024-01-16T12:42:19;97439.38;;;2.38;57.80
46392;BME280;32098;49.448;7.904;2024-01-16T12:44:46;97433.91;;;2.39;56.79
46392;BME280;32098;49.448;7.904;2024-01-16T12:47:17;97432.13;;;2.40;56.86
46392;BME280;32098;49.448;7.904;2024-01-16T12:49:45;97434.19;;;2.44;57.57
46392;BME280;32098;49.448;7.904;2024-01-16T12:52:20;97436.19;;;2.42;56.34
46392;BME280;32098;49.448;7.904;2024-01-16T12:54:58;97428.88;;;2.38;55.86
46392;BME280;32098;49.448;7.904;2024-01-16T12:57:26;97433.41;;;2.29;55.15
46392;BME280;32098;49.448;7.904;2024-01-16T12:59:52;97422.19;;;2.20;55.56
46392;BME280;32098;49.448;7.904;2024-01-16T13:02:24;97422.31;;;2.12;55.88
46392;BME280;32098;49.448;7.904;2024-01-16T13:04:58;97426.09;;;2.10;55.99
46392;BME280;32098;49.448;7.904;2024-01-16T13:07:26;97423.22;;;2.05;56.54
46392;BME280;32098;49.448;7.904;2024-01-16T13:12:35;97412.00;;;1.96;56.37
46392;BME280;32098;49.448;7.904;2024-01-16T13:15:03;97411.63;;;1.99;56.67
46392;BME280;32098;49.448;7.904;2024-01-16T13:17:34;97403.19;;;2.04;57.36